LFBL/LIG METAR and TAF weather

Enter ICAO airport designator
Station Type Date Time Source
LFBL METAR 2019/12/08 17:00 UTC NOAA

LFBL 081700Z AUTO 28010KT 250V310 9999 FEW009 SCT016 OVC220 08/07 Q1016 TEMPO 2000 -RADZ BECMG BKN013


Station Type Date Time Source
LFBL Decoded METAR 2019/12/08 17:00 UTC NOAA

Limoges, France (LFBL) 45-52N 001-11E 402M
Dec 08, 2019 - 12:00 PM EST / 2019.12.08 1700 UTC
Wind: from the W (280 degrees) at 12 MPH (10 KT) (direction variable):0
Visibility: greater than 7 mile(s):0
Sky conditions: overcast
Temperature: 46 F (8 C)
Dew Point: 44 F (7 C)
Relative Humidity: 93%
Pressure (altimeter): 30.00 in. Hg (1016 hPa)
ob: LFBL 081700Z AUTO 28010KT 250V310 9999 FEW009 SCT016 OVC220 08/07 Q1016 TEMPO 2000 -RADZ BECMG BKN013
cycle: 17

Station Type Date Time Source
LFBL TAF 2019/12/08 16:18 UTC NOAA

TAF
AMD LFBL 081610Z 0816/0912 20012KT 7000 BKN003 BKN016
TEMPO 0816/0818 2000 -RADZ OVC001
BECMG 0817/0819 26012KT BKN013
BECMG 0820/0822 25018G32KT
TEMPO 0821/0906 4000 SHRA BKN006 SCT015TCU FEW020CB PROB30
TEMPO 0900/0904 -TSRA
BECMG 0908/0910 BKN016

Example: see airport list